Time;durP1;ratioP1;P1;durP2;ratioP2;P2;SDS_P1;SDS_P2;PMS_P1;PMS_P2;Temp;Humidity;BMP_temperature;BMP_pressure;BME280_temperature;BME280_humidity;BME280_pressure;Samples;Min_cycle;Max_cycle;Signal;HPM_P1;HPM_P2
2022/03/03 00:01:30;;;;;;;13.23;10.15;;;;;;;;;;4976069;28;20460;-66
2022/03/03 00:03:56;;;;;;;12.32;10.20;;;;;;;;;;4973787;28;20460;-67
2022/03/03 00:06:22;;;;;;;12.85;10.25;;;;;;;;;;4982663;28;20716;-67
2022/03/03 00:08:48;;;;;;;12.90;10.18;;;;;;;;;;4990717;28;20882;-69
2022/03/03 00:11:14;;;;;;;12.30;10.23;;;;;;;;;;4980553;28;20508;-67
2022/03/03 00:13:40;;;;;;;12.80;10.10;;;;;;;;;;4988529;28;20644;-67
2022/03/03 00:16:08;;;;;;;12.13;10.05;;;;;;;;;;4992340;28;20411;-67
2022/03/03 00:18:33;;;;;;;11.90;10.02;;;;;;;;;;4968685;28;20537;-67
2022/03/03 00:20:59;;;;;;;12.47;10.57;;;;;;;;;;4980342;28;20997;-67
2022/03/03 00:23:25;;;;;;;11.38;9.73;;;;;;;;;;4984678;28;20416;-67
2022/03/03 00:25:51;;;;;;;12.25;10.07;;;;;;;;;;4988973;28;20422;-67
2022/03/03 00:28:17;;;;;;;13.02;9.73;;;;;;;;;;4981406;28;20631;-67
2022/03/03 00:30:43;;;;;;;11.93;9.90;;;;;;;;;;4966963;28;22811;-67
2022/03/03 00:33:09;;;;;;;11.55;10.05;;;;;;;;;;4975509;28;20407;-67
2022/03/03 00:35:35;;;;;;;11.88;9.75;;;;;;;;;;4984803;28;20488;-66
2022/03/03 00:38:01;;;;;;;12.80;9.73;;;;;;;;;;4977633;28;20403;-66
2022/03/03 00:40:27;;;;;;;13.88;10.63;;;;;;;;;;4985129;28;20417;-67
2022/03/03 00:42:53;;;;;;;12.63;10.17;;;;;;;;;;4974666;28;21701;-68
2022/03/03 00:45:19;;;;;;;11.35;9.60;;;;;;;;;;4977363;28;20411;-68
2022/03/03 00:47:45;;;;;;;12.02;10.10;;;;;;;;;;4974517;28;20495;-67
2022/03/03 00:50:11;;;;;;;12.60;10.02;;;;;;;;;;4974511;28;20474;-67
2022/03/03 00:52:37;;;;;;;11.65;10.10;;;;;;;;;;4971406;28;20426;-67
2022/03/03 00:55:03;;;;;;;13.05;10.30;;;;;;;;;;4976627;28;20771;-67
2022/03/03 00:57:29;;;;;;;11.45;9.63;;;;;;;;;;4956827;28;20985;-67
2022/03/03 00:59:55;;;;;;;12.55;10.27;;;;;;;;;;4958991;28;20415;-66
2022/03/03 01:02:21;;;;;;;11.63;9.90;;;;;;;;;;4959477;28;20421;-67
2022/03/03 01:04:46;;;;;;;12.35;10.02;;;;;;;;;;4976963;28;20963;-66
2022/03/03 01:07:12;;;;;;;12.35;10.02;;;;;;;;;;4977794;28;20880;-67
2022/03/03 01:09:38;;;;;;;12.82;10.10;;;;;;;;;;4981654;28;20411;-66
2022/03/03 01:12:04;;;;;;;13.67;10.40;;;;;;;;;;4966919;28;20985;-69
2022/03/03 01:14:30;;;;;;;15.02;9.95;;;;;;;;;;4983651;28;20429;-67
2022/03/03 01:16:56;;;;;;;13.05;10.13;;;;;;;;;;4975976;28;20403;-66
2022/03/03 01:19:22;;;;;;;12.77;10.18;;;;;;;;;;4978143;28;20415;-67
2022/03/03 01:21:48;;;;;;;12.75;10.10;;;;;;;;;;4985286;28;20411;-67
2022/03/03 01:24:14;;;;;;;13.57;11.10;;;;;;;;;;4977602;28;20945;-67
2022/03/03 01:26:40;;;;;;;12.20;9.77;;;;;;;;;;4984833;28;22404;-67
2022/03/03 01:29:06;;;;;;;12.18;9.90;;;;;;;;;;4979473;28;20419;-68
2022/03/03 01:31:32;;;;;;;12.90;10.68;;;;;;;;;;4973058;28;20921;-67
2022/03/03 01:33:58;;;;;;;13.53;10.87;;;;;;;;;;4987962;28;20572;-66
2022/03/03 01:36:24;;;;;;;11.97;10.20;;;;;;;;;;4966395;28;20537;-67
2022/03/03 01:38:50;;;;;;;12.63;10.55;;;;;;;;;;4966568;28;20420;-68
2022/03/03 01:41:16;;;;;;;13.55;10.10;;;;;;;;;;4962209;28;20941;-67
2022/03/03 01:43:42;;;;;;;12.02;10.15;;;;;;;;;;4956069;28;21130;-67
2022/03/03 01:46:08;;;;;;;12.30;10.38;;;;;;;;;;4955555;28;20421;-68
2022/03/03 01:48:34;;;;;;;12.90;10.80;;;;;;;;;;4969109;28;21320;-68
2022/03/03 01:51:00;;;;;;;12.35;10.30;;;;;;;;;;4964955;28;20428;-67
2022/03/03 01:53:25;;;;;;;12.18;10.27;;;;;;;;;;4971903;28;21035;-66
2022/03/03 01:55:52;;;;;;;13.80;10.38;;;;;;;;;;4960960;28;20428;-67
2022/03/03 01:58:18;;;;;;;12.25;10.68;;;;;;;;;;4959041;28;20412;-66
2022/03/03 02:00:44;;;;;;;13.57;10.32;;;;;;;;;;4973813;28;20499;-66
2022/03/03 02:03:10;;;;;;;12.77;10.40;;;;;;;;;;4949464;28;20455;-67
2022/03/03 02:05:37;;;;;;;12.82;10.88;;;;;;;;;;4972862;28;20427;-68
2022/03/03 02:08:03;;;;;;;11.95;10.32;;;;;;;;;;4972759;28;20442;-67
2022/03/03 02:10:29;;;;;;;13.00;10.40;;;;;;;;;;4948102;28;20917;-67
2022/03/03 02:12:55;;;;;;;12.55;10.55;;;;;;;;;;4969813;28;20418;-67
2022/03/03 02:15:21;;;;;;;12.63;10.15;;;;;;;;;;4977335;28;20424;-67
2022/03/03 02:17:47;;;;;;;13.13;10.60;;;;;;;;;;4969103;28;20690;-67
2022/03/03 02:20:22;;;;;;;12.40;10.63;;;;;;;;;;4972857;28;20413;-67
2022/03/03 02:22:49;;;;;;;12.85;10.63;;;;;;;;;;4974273;28;20968;-66
2022/03/03 02:25:15;;;;;;;14.25;10.50;;;;;;;;;;4976872;28;20411;-67
2022/03/03 02:27:41;;;;;;;12.63;10.48;;;;;;;;;;4976744;28;20417;-66
2022/03/03 02:30:07;;;;;;;14.65;10.88;;;;;;;;;;4965302;28;20482;-67
2022/03/03 02:32:33;;;;;;;12.55;10.38;;;;;;;;;;4988165;28;21737;-67
2022/03/03 02:34:59;;;;;;;12.30;10.18;;;;;;;;;;4985454;28;20455;-67
2022/03/03 02:37:25;;;;;;;12.83;10.80;;;;;;;;;;4969574;28;20541;-67
2022/03/03 02:39:51;;;;;;;12.07;10.40;;;;;;;;;;4990918;28;20495;-67
2022/03/03 02:42:19;;;;;;;12.18;10.10;;;;;;;;;;4967135;28;21535;-67
2022/03/03 02:44:45;;;;;;;12.02;10.52;;;;;;;;;;4983969;28;20408;-67
2022/03/03 02:47:11;;;;;;;13.77;10.95;;;;;;;;;;4985285;28;20765;-66
2022/03/03 02:49:36;;;;;;;14.53;11.10;;;;;;;;;;4987356;28;20795;-67
2022/03/03 02:52:02;;;;;;;13.73;10.57;;;;;;;;;;4971172;28;20410;-67
2022/03/03 02:54:28;;;;;;;13.85;10.25;;;;;;;;;;4979969;28;20428;-66
2022/03/03 02:59:39;;;;;;;14.77;11.30;;;;;;;;;;4982330;28;20841;-67
2022/03/03 03:02:05;;;;;;;14.93;11.52;;;;;;;;;;4982310;28;20404;-67
2022/03/03 03:04:31;;;;;;;14.50;11.10;;;;;;;;;;4971820;28;21070;-67
2022/03/03 03:06:57;;;;;;;14.20;11.00;;;;;;;;;;4984320;28;20412;-67
2022/03/03 03:09:23;;;;;;;13.27;11.20;;;;;;;;;;4995226;28;20454;-67
2022/03/03 03:11:49;;;;;;;12.15;10.80;;;;;;;;;;4995003;28;20450;-68
2022/03/03 03:14:15;;;;;;;12.32;10.90;;;;;;;;;;4988632;28;20422;-67
2022/03/03 03:16:41;;;;;;;12.77;11.10;;;;;;;;;;4958133;28;20406;-66
2022/03/03 03:19:07;;;;;;;12.63;10.75;;;;;;;;;;4965904;28;21207;-66
2022/03/03 03:21:32;;;;;;;12.63;10.98;;;;;;;;;;4963134;28;24978;-66
2022/03/03 03:23:58;;;;;;;13.27;10.55;;;;;;;;;;4976927;28;20423;-66
2022/03/03 03:26:24;;;;;;;12.25;10.95;;;;;;;;;;4984814;28;20429;-67
2022/03/03 03:28:50;;;;;;;13.85;11.02;;;;;;;;;;4981709;28;20837;-67
2022/03/03 03:31:17;;;;;;;12.98;11.45;;;;;;;;;;4966227;28;21038;-67
2022/03/03 03:33:43;;;;;;;12.93;11.07;;;;;;;;;;4963587;28;21365;-67
2022/03/03 03:36:09;;;;;;;13.73;10.80;;;;;;;;;;4979232;28;20923;-66
2022/03/03 03:38:35;;;;;;;14.43;11.38;;;;;;;;;;4977142;28;20756;-67
2022/03/03 03:41:01;;;;;;;13.20;11.23;;;;;;;;;;4977137;28;20413;-66
2022/03/03 03:43:27;;;;;;;12.67;11.03;;;;;;;;;;4982255;28;20537;-67
2022/03/03 03:45:53;;;;;;;13.25;11.10;;;;;;;;;;4955986;28;21192;-66
2022/03/03 03:48:19;;;;;;;13.63;11.35;;;;;;;;;;4987148;28;21918;-67
2022/03/03 03:50:45;;;;;;;12.88;11.20;;;;;;;;;;4976890;28;20417;-66
2022/03/03 03:53:11;;;;;;;12.97;11.20;;;;;;;;;;4979145;28;20424;-67
2022/03/03 03:55:37;;;;;;;12.73;11.35;;;;;;;;;;4955746;28;21110;-67
2022/03/03 03:58:03;;;;;;;12.55;10.57;;;;;;;;;;4972401;28;20909;-67
2022/03/03 04:00:29;;;;;;;14.05;11.50;;;;;;;;;;4961647;28;20402;-67
2022/03/03 04:02:55;;;;;;;13.23;11.30;;;;;;;;;;4960921;28;20860;-67
2022/03/03 04:05:21;;;;;;;13.57;11.35;;;;;;;;;;4962259;28;20455;-66
2022/03/03 04:07:47;;;;;;;12.88;11.07;;;;;;;;;;4963927;28;21056;-68
2022/03/03 04:10:13;;;;;;;14.50;11.88;;;;;;;;;;4960611;28;20419;-67
2022/03/03 04:12:39;;;;;;;13.18;11.23;;;;;;;;;;4967295;28;20486;-67
2022/03/03 04:15:05;;;;;;;12.43;10.90;;;;;;;;;;4967271;28;20895;-66
2022/03/03 04:17:32;;;;;;;13.30;11.10;;;;;;;;;;4978258;28;20442;-67
2022/03/03 04:19:58;;;;;;;13.70;11.27;;;;;;;;;;4971468;28;20423;-67
2022/03/03 04:22:24;;;;;;;14.23;10.80;;;;;;;;;;4969820;28;21019;-67
2022/03/03 04:24:51;;;;;;;15.30;11.43;;;;;;;;;;4975180;28;20775;-68
2022/03/03 04:27:16;;;;;;;14.00;11.50;;;;;;;;;;4970426;28;20910;-67
2022/03/03 04:29:43;;;;;;;13.75;11.80;;;;;;;;;;4970208;28;20413;-67
2022/03/03 04:32:09;;;;;;;13.13;11.15;;;;;;;;;;4962692;28;20842;-68
2022/03/03 04:34:35;;;;;;;13.98;11.70;;;;;;;;;;4962757;28;20424;-66
2022/03/03 04:37:00;;;;;;;13.60;11.48;;;;;;;;;;4966223;28;20459;-67
2022/03/03 04:39:26;;;;;;;14.52;11.35;;;;;;;;;;4964359;28;20408;-70
2022/03/03 04:41:52;;;;;;;14.00;11.30;;;;;;;;;;4957234;28;20426;-67
2022/03/03 04:44:18;;;;;;;12.50;10.60;;;;;;;;;;4952202;28;20501;-67
2022/03/03 04:46:44;;;;;;;13.68;11.38;;;;;;;;;;4956476;28;21020;-66
2022/03/03 04:49:10;;;;;;;12.52;11.00;;;;;;;;;;4957679;28;20427;-66
2022/03/03 04:51:36;;;;;;;13.88;11.55;;;;;;;;;;4956050;28;20423;-67
2022/03/03 04:54:04;;;;;;;13.57;11.50;;;;;;;;;;4955225;28;21971;-68
2022/03/03 04:56:29;;;;;;;13.57;11.50;;;;;;;;;;4958276;28;20401;-67
2022/03/03 04:58:55;;;;;;;14.05;11.05;;;;;;;;;;4966977;28;20427;-67
2022/03/03 05:01:21;;;;;;;14.75;12.43;;;;;;;;;;4949269;28;21015;-66
2022/03/03 05:03:47;;;;;;;13.10;11.70;;;;;;;;;;4953212;28;20502;-67
2022/03/03 05:06:13;;;;;;;13.45;11.40;;;;;;;;;;4960938;28;20425;-67
2022/03/03 05:08:40;;;;;;;13.93;10.90;;;;;;;;;;4957057;28;20771;-68
2022/03/03 05:11:06;;;;;;;14.93;11.38;;;;;;;;;;4951202;28;20501;-65
2022/03/03 05:13:32;;;;;;;13.35;11.35;;;;;;;;;;4952323;28;20427;-66
2022/03/03 05:15:58;;;;;;;15.55;11.18;;;;;;;;;;4957502;28;20801;-66
2022/03/03 05:18:24;;;;;;;13.52;10.85;;;;;;;;;;4957515;28;20467;-67
2022/03/03 05:20:50;;;;;;;13.70;11.10;;;;;;;;;;4954434;28;20440;-66
2022/03/03 05:23:16;;;;;;;13.15;11.55;;;;;;;;;;4952404;28;20444;-66
2022/03/03 05:25:42;;;;;;;13.50;11.77;;;;;;;;;;4952747;28;20520;-66
2022/03/03 05:28:08;;;;;;;13.55;11.40;;;;;;;;;;4943967;28;20447;-67
2022/03/03 05:30:34;;;;;;;14.50;11.32;;;;;;;;;;4955893;28;20418;-66
2022/03/03 05:33:00;;;;;;;14.00;11.52;;;;;;;;;;4953092;28;20444;-66
2022/03/03 05:35:26;;;;;;;13.60;11.70;;;;;;;;;;4952267;28;20502;-66
2022/03/03 05:37:51;;;;;;;14.13;11.65;;;;;;;;;;4936354;28;21419;-66
2022/03/03 05:40:17;;;;;;;15.07;12.15;;;;;;;;;;4942315;28;20705;-66
2022/03/03 05:42:43;;;;;;;13.50;11.68;;;;;;;;;;4932341;28;20412;-66
2022/03/03 05:45:10;;;;;;;13.63;11.60;;;;;;;;;;4939558;28;20409;-66
2022/03/03 05:47:36;;;;;;;14.02;11.80;;;;;;;;;;4936092;28;20422;-67
2022/03/03 05:50:02;;;;;;;12.55;11.15;;;;;;;;;;4937090;28;20777;-66
2022/03/03 05:52:28;;;;;;;13.55;11.75;;;;;;;;;;4945061;28;20443;-66
2022/03/03 05:54:54;;;;;;;14.35;12.13;;;;;;;;;;4944206;28;20413;-67
2022/03/03 05:57:36;;;;;;;13.57;11.30;;;;;;;;;;4944343;28;20713;-65
2022/03/03 06:00:04;;;;;;;13.52;11.45;;;;;;;;;;4947760;28;20850;-66
2022/03/03 06:02:30;;;;;;;14.07;11.60;;;;;;;;;;4933703;28;20507;-66
2022/03/03 06:04:56;;;;;;;13.55;11.45;;;;;;;;;;4956525;28;20535;-66
2022/03/03 06:07:25;;;;;;;24.77;17.00;;;;;;;;;;4952165;28;20964;-67
2022/03/03 06:09:52;;;;;;;27.08;17.52;;;;;;;;;;4964106;28;20422;-66
2022/03/03 06:12:19;;;;;;;20.52;14.70;;;;;;;;;;4960325;28;20461;-73
2022/03/03 06:14:47;;;;;;;23.90;16.75;;;;;;;;;;4965867;28;20422;-71
2022/03/03 06:17:13;;;;;;;32.63;21.05;;;;;;;;;;4994075;28;20448;-66
2022/03/03 06:19:41;;;;;;;36.53;23.57;;;;;;;;;;4986074;28;20406;-67
2022/03/03 06:22:08;;;;;;;35.30;22.08;;;;;;;;;;4990497;28;22152;-67
2022/03/03 06:24:34;;;;;;;37.75;22.25;;;;;;;;;;4995159;28;20963;-67
2022/03/03 06:27:01;;;;;;;32.97;20.90;;;;;;;;;;4982762;28;20514;-67
2022/03/03 06:29:27;;;;;;;30.33;20.48;;;;;;;;;;4951059;28;20426;-67
2022/03/03 06:31:53;;;;;;;27.23;18.60;;;;;;;;;;4991363;28;20434;-68
2022/03/03 06:34:20;;;;;;;27.98;18.55;;;;;;;;;;4988961;28;20484;-67
2022/03/03 06:36:46;;;;;;;28.15;17.40;;;;;;;;;;4987499;28;20422;-67
2022/03/03 06:39:12;;;;;;;35.30;18.98;;;;;;;;;;4967011;28;20985;-66
2022/03/03 06:41:38;;;;;;;29.42;17.48;;;;;;;;;;4985263;28;20414;-67
2022/03/03 06:44:05;;;;;;;27.30;17.58;;;;;;;;;;4983537;28;20986;-67
2022/03/03 06:46:31;;;;;;;30.42;16.90;;;;;;;;;;4979533;28;20424;-67
2022/03/03 06:48:57;;;;;;;29.33;16.45;;;;;;;;;;4992928;28;20530;-65
2022/03/03 06:51:23;;;;;;;23.85;16.15;;;;;;;;;;5002326;28;21195;-67
2022/03/03 06:53:50;;;;;;;27.65;16.33;;;;;;;;;;5001752;28;20507;-67
2022/03/03 06:56:16;;;;;;;26.73;16.30;;;;;;;;;;4972197;28;20429;-67
2022/03/03 06:58:42;;;;;;;24.27;16.33;;;;;;;;;;4967812;28;20908;-67
2022/03/03 07:01:09;;;;;;;23.17;15.00;;;;;;;;;;4984246;28;20486;-67
2022/03/03 07:03:35;;;;;;;20.60;15.20;;;;;;;;;;4979244;28;20427;-66
2022/03/03 07:06:01;;;;;;;20.40;14.70;;;;;;;;;;4984828;28;20411;-67
2022/03/03 07:08:27;;;;;;;22.47;15.23;;;;;;;;;;4989550;28;20450;-67
2022/03/03 07:10:53;;;;;;;20.83;15.15;;;;;;;;;;4993079;28;20419;-67
2022/03/03 07:13:19;;;;;;;18.90;14.10;;;;;;;;;;4978654;28;20403;-67
2022/03/03 07:15:52;;;;;;;18.58;14.10;;;;;;;;;;4993939;28;20401;-67
2022/03/03 07:18:30;;;;;;;18.15;13.60;;;;;;;;;;4979154;28;20419;-67
2022/03/03 07:21:04;;;;;;;18.70;13.90;;;;;;;;;;4999366;28;20414;-67
2022/03/03 07:23:32;;;;;;;19.27;14.38;;;;;;;;;;4974125;28;20942;-67
2022/03/03 07:25:58;;;;;;;20.08;13.95;;;;;;;;;;4993140;28;20739;-67
2022/03/03 07:28:24;;;;;;;18.38;14.05;;;;;;;;;;4982681;28;20433;-67
2022/03/03 07:30:51;;;;;;;19.92;13.98;;;;;;;;;;4980409;28;20418;-68
2022/03/03 07:33:19;;;;;;;17.42;13.43;;;;;;;;;;4978653;28;20419;-68
2022/03/03 07:35:45;;;;;;;17.00;13.40;;;;;;;;;;4967932;28;20420;-67
2022/03/03 07:38:15;;;;;;;18.45;13.60;;;;;;;;;;4963844;28;20445;-67
2022/03/03 07:40:41;;;;;;;19.05;13.50;;;;;;;;;;4989372;28;20402;-67
2022/03/03 07:43:07;;;;;;;16.52;13.15;;;;;;;;;;4987807;28;20931;-67
2022/03/03 07:45:33;;;;;;;16.05;12.95;;;;;;;;;;5001309;28;20524;-69
2022/03/03 07:47:59;;;;;;;16.55;13.02;;;;;;;;;;4998365;28;21363;-66
2022/03/03 07:50:26;;;;;;;16.88;13.27;;;;;;;;;;4991051;28;20410;-67
2022/03/03 07:52:52;;;;;;;15.50;12.93;;;;;;;;;;4980120;28;20539;-67
2022/03/03 07:55:18;;;;;;;16.88;12.95;;;;;;;;;;4988664;28;21565;-68
2022/03/03 07:58:03;;;;;;;14.85;12.48;;;;;;;;;;4978512;28;20505;-68
2022/03/03 08:00:29;;;;;;;16.17;13.13;;;;;;;;;;4993756;28;21526;-69
2022/03/03 08:02:58;;;;;;;16.40;13.05;;;;;;;;;;4997629;28;20799;-68
2022/03/03 08:05:24;;;;;;;15.35;12.77;;;;;;;;;;4976954;28;20771;-67
2022/03/03 08:07:51;;;;;;;14.05;12.20;;;;;;;;;;4991043;28;20454;-67
2022/03/03 08:10:17;;;;;;;15.90;12.70;;;;;;;;;;4963467;28;20424;-67
2022/03/03 08:12:43;;;;;;;14.90;12.95;;;;;;;;;;4977578;28;20420;-67
2022/03/03 08:15:09;;;;;;;15.65;12.35;;;;;;;;;;4982323;28;20483;-68
2022/03/03 08:17:36;;;;;;;16.27;12.95;;;;;;;;;;4983993;28;20413;-67
2022/03/03 08:20:05;;;;;;;15.02;12.00;;;;;;;;;;4977335;28;20407;-67
2022/03/03 08:22:31;;;;;;;16.65;13.10;;;;;;;;;;4984760;28;20410;-67
2022/03/03 08:24:57;;;;;;;16.40;12.52;;;;;;;;;;4981629;28;20490;-67
2022/03/03 08:27:24;;;;;;;15.82;12.35;;;;;;;;;;4996065;28;20458;-67
2022/03/03 08:29:50;;;;;;;14.07;11.98;;;;;;;;;;4981917;28;20750;-67
2022/03/03 08:32:17;;;;;;;13.98;12.43;;;;;;;;;;4985342;28;22152;-68
2022/03/03 08:34:48;;;;;;;14.40;12.20;;;;;;;;;;4979945;28;20766;-67
2022/03/03 08:37:14;;;;;;;14.10;12.13;;;;;;;;;;4980559;28;21131;-68
2022/03/03 08:39:40;;;;;;;14.35;12.13;;;;;;;;;;4978018;28;20412;-68
2022/03/03 08:42:08;;;;;;;16.70;12.35;;;;;;;;;;4971994;28;21005;-68
2022/03/03 08:44:35;;;;;;;14.20;11.32;;;;;;;;;;4978644;28;21135;-67
2022/03/03 08:47:01;;;;;;;14.07;11.65;;;;;;;;;;4963268;28;20402;-66
2022/03/03 08:49:29;;;;;;;14.38;11.68;;;;;;;;;;4974083;28;20904;-66
2022/03/03 08:51:55;;;;;;;15.00;11.77;;;;;;;;;;4982716;28;20418;-67
2022/03/03 08:54:21;;;;;;;14.88;11.75;;;;;;;;;;4967633;28;21115;-67
2022/03/03 08:56:47;;;;;;;12.68;11.38;;;;;;;;;;4985393;28;20916;-67
2022/03/03 08:59:13;;;;;;;13.68;11.32;;;;;;;;;;4982285;28;20414;-67
2022/03/03 09:01:39;;;;;;;14.18;11.57;;;;;;;;;;4981683;28;20902;-67
2022/03/03 09:04:06;;;;;;;13.45;11.23;;;;;;;;;;4969396;28;20434;-67
2022/03/03 09:06:32;;;;;;;13.55;11.40;;;;;;;;;;4976190;28;20453;-67
2022/03/03 09:08:59;;;;;;;13.50;11.00;;;;;;;;;;4983280;28;20432;-67
2022/03/03 09:11:25;;;;;;;15.65;11.07;;;;;;;;;;4969269;28;21835;-67
2022/03/03 09:13:51;;;;;;;12.63;10.98;;;;;;;;;;4961007;28;20437;-67
2022/03/03 09:16:17;;;;;;;12.52;10.88;;;;;;;;;;4983323;28;20411;-67
2022/03/03 09:18:47;;;;;;;13.20;10.88;;;;;;;;;;4980684;28;20775;-67
2022/03/03 09:21:12;;;;;;;12.60;10.50;;;;;;;;;;4969658;28;20421;-67
2022/03/03 09:23:38;;;;;;;11.63;10.43;;;;;;;;;;4970633;28;21125;-67
2022/03/03 09:26:04;;;;;;;13.20;11.05;;;;;;;;;;4988053;28;20419;-68
2022/03/03 09:28:30;;;;;;;12.10;10.82;;;;;;;;;;4988325;28;20415;-68
2022/03/03 09:30:57;;;;;;;13.07;10.33;;;;;;;;;;4971669;28;20420;-67
2022/03/03 09:33:23;;;;;;;11.40;10.20;;;;;;;;;;4983567;28;21148;-67
2022/03/03 09:35:49;;;;;;;12.48;10.80;;;;;;;;;;4979459;28;20482;-70
2022/03/03 09:38:15;;;;;;;13.65;10.63;;;;;;;;;;4981282;28;20975;-67
2022/03/03 09:40:42;;;;;;;13.63;10.70;;;;;;;;;;4966883;28;20445;-67
2022/03/03 09:43:07;;;;;;;11.68;10.27;;;;;;;;;;4972889;28;21151;-67
2022/03/03 09:45:34;;;;;;;12.82;10.50;;;;;;;;;;4973153;28;20451;-69
2022/03/03 09:48:03;;;;;;;11.88;10.40;;;;;;;;;;4970378;28;20407;-68
2022/03/03 09:50:29;;;;;;;11.77;10.52;;;;;;;;;;4961767;28;21273;-68
2022/03/03 09:52:55;;;;;;;11.03;9.83;;;;;;;;;;4968529;28;20429;-67
2022/03/03 09:55:21;;;;;;;11.33;10.13;;;;;;;;;;4983519;28;20792;-68
2022/03/03 09:57:48;;;;;;;11.30;10.10;;;;;;;;;;4982346;28;20461;-67
2022/03/03 10:00:14;;;;;;;12.93;9.90;;;;;;;;;;4977921;28;20511;-67
2022/03/03 10:02:56;;;;;;;11.40;10.25;;;;;;;;;;4968631;28;20494;-68
2022/03/03 10:05:31;;;;;;;12.05;9.90;;;;;;;;;;4975280;28;20489;-68
2022/03/03 10:08:07;;;;;;;11.73;10.30;;;;;;;;;;4980861;28;20410;-69
2022/03/03 10:10:33;;;;;;;11.20;10.07;;;;;;;;;;4972213;28;20432;-68
2022/03/03 10:12:59;;;;;;;10.90;9.85;;;;;;;;;;4980861;28;22001;-68
2022/03/03 10:15:26;;;;;;;11.45;10.25;;;;;;;;;;4980179;28;20403;-67
2022/03/03 10:17:59;;;;;;;10.82;9.70;;;;;;;;;;4986682;28;20790;-67
2022/03/03 10:20:25;;;;;;;10.40;9.35;;;;;;;;;;4989785;28;21296;-69
2022/03/03 10:22:57;;;;;;;10.93;9.70;;;;;;;;;;4990267;28;20577;-68
2022/03/03 10:25:27;;;;;;;11.13;9.90;;;;;;;;;;4978349;28;20503;-68
2022/03/03 10:27:53;;;;;;;10.50;9.50;;;;;;;;;;4991392;28;20433;-69
2022/03/03 10:30:19;;;;;;;10.40;9.40;;;;;;;;;;4983104;28;20739;-68
2022/03/03 10:32:47;;;;;;;14.82;13.23;;;;;;;;;;4966858;28;21064;-67
2022/03/03 10:35:16;;;;;;;14.80;13.02;;;;;;;;;;4959109;28;20489;-68
2022/03/03 10:37:43;;;;;;;16.45;13.43;;;;;;;;;;4989426;28;20312;-68
2022/03/03 10:40:10;;;;;;;22.40;12.40;;;;;;;;;;4979172;28;20351;-69
2022/03/03 10:42:37;;;;;;;15.18;12.20;;;;;;;;;;4978312;28;20200;-69
2022/03/03 10:45:11;;;;;;;15.80;12.13;;;;;;;;;;4983058;28;20279;-69
2022/03/03 10:47:37;;;;;;;14.20;12.00;;;;;;;;;;4971181;28;20192;-68
2022/03/03 10:50:03;;;;;;;15.70;11.82;;;;;;;;;;4962385;28;20576;-69
2022/03/03 10:52:30;;;;;;;13.68;11.40;;;;;;;;;;4970850;28;20202;-69
2022/03/03 10:55:02;;;;;;;13.50;11.45;;;;;;;;;;4970201;28;20217;-68
2022/03/03 10:57:36;;;;;;;13.27;10.82;;;;;;;;;;4990175;28;20200;-68
2022/03/03 11:00:04;;;;;;;13.45;11.40;;;;;;;;;;4963106;28;20276;-69
2022/03/03 11:02:30;;;;;;;12.85;11.38;;;;;;;;;;4960663;28;20424;-69
2022/03/03 11:04:56;;;;;;;14.38;11.40;;;;;;;;;;4975341;28;20197;-70
2022/03/03 11:07:22;;;;;;;14.63;10.75;;;;;;;;;;4964155;28;20189;-70
2022/03/03 11:09:49;;;;;;;13.20;10.82;;;;;;;;;;4980464;28;20228;-69
2022/03/03 11:12:14;;;;;;;16.48;11.30;;;;;;;;;;4971467;28;20197;-68
2022/03/03 11:14:40;;;;;;;11.95;10.75;;;;;;;;;;4981320;28;20222;-70
2022/03/03 11:17:07;;;;;;;12.80;10.93;;;;;;;;;;4953890;28;20193;-69
2022/03/03 11:19:33;;;;;;;12.35;10.98;;;;;;;;;;4975451;28;20205;-69
2022/03/03 11:21:59;;;;;;;14.98;11.50;;;;;;;;;;4962990;28;20200;-68
2022/03/03 11:24:25;;;;;;;14.70;10.82;;;;;;;;;;4981630;28;20235;-68
2022/03/03 11:26:51;;;;;;;13.82;10.45;;;;;;;;;;4985816;28;20271;-68
2022/03/03 11:29:17;;;;;;;11.50;10.13;;;;;;;;;;4979360;28;20223;-70
2022/03/03 11:31:44;;;;;;;12.43;9.75;;;;;;;;;;4957758;28;20232;-68
2022/03/03 11:34:19;;;;;;;11.57;10.38;;;;;;;;;;4981186;28;20209;-69
2022/03/03 11:36:45;;;;;;;11.50;9.15;;;;;;;;;;4988164;28;21291;-69
2022/03/03 11:39:11;;;;;;;10.50;9.50;;;;;;;;;;4968674;28;20666;-68
2022/03/03 11:41:46;;;;;;;10.90;9.73;;;;;;;;;;4969306;28;20343;-68
2022/03/03 11:44:14;;;;;;;9.93;8.90;;;;;;;;;;4966201;28;20242;-69
2022/03/03 11:46:46;;;;;;;9.48;8.63;;;;;;;;;;4976073;28;20201;-69
2022/03/03 11:49:12;;;;;;;9.57;8.65;;;;;;;;;;4987156;28;20968;-70
2022/03/03 11:51:38;;;;;;;10.05;8.68;;;;;;;;;;4983538;28;20201;-69
2022/03/03 11:54:07;;;;;;;10.38;9.10;;;;;;;;;;4976013;28;20244;-69
2022/03/03 11:56:33;;;;;;;9.65;8.65;;;;;;;;;;4966943;28;20235;-70
2022/03/03 11:59:19;;;;;;;9.45;8.50;;;;;;;;;;4960388;28;20189;-70
2022/03/03 12:02:03;;;;;;;9.27;8.38;;;;;;;;;;4983079;28;20290;-70
2022/03/03 12:04:29;;;;;;;10.35;9.23;;;;;;;;;;4969901;28;20240;-71
2022/03/03 12:06:55;;;;;;;10.10;9.07;;;;;;;;;;4959305;28;20279;-70
2022/03/03 12:09:26;;;;;;;9.10;8.23;;;;;;;;;;4977131;28;20568;-69
2022/03/03 12:12:11;;;;;;;9.75;8.68;;;;;;;;;;4970498;28;20196;-69
2022/03/03 12:14:39;;;;;;;9.57;8.77;;;;;;;;;;4960362;28;20283;-69
2022/03/03 12:17:24;;;;;;;9.30;8.35;;;;;;;;;;4973047;28;20181;-70
2022/03/03 12:19:51;;;;;;;9.63;8.82;;;;;;;;;;4986715;28;20196;-70
2022/03/03 12:22:24;;;;;;;9.45;8.45;;;;;;;;;;4970813;28;20997;-69
2022/03/03 12:24:50;;;;;;;9.70;8.80;;;;;;;;;;4981863;28;20189;-69
2022/03/03 12:27:16;;;;;;;10.30;8.93;;;;;;;;;;4965930;28;20648;-70
2022/03/03 12:29:42;;;;;;;8.98;8.07;;;;;;;;;;4989222;28;20287;-69
2022/03/03 12:32:27;;;;;;;9.48;8.45;;;;;;;;;;4964325;28;20190;-69
2022/03/03 12:34:57;;;;;;;9.57;8.68;;;;;;;;;;4980115;28;21369;-69
2022/03/03 12:37:22;;;;;;;9.10;8.20;;;;;;;;;;4967602;28;20659;-69
2022/03/03 12:39:49;;;;;;;19.17;13.68;;;;;;;;;;4959434;28;21378;-70
2022/03/03 12:42:21;;;;;;;14.65;12.95;;;;;;;;;;4964466;28;20189;-70
2022/03/03 12:44:51;;;;;;;15.43;12.43;;;;;;;;;;4976102;28;20242;-70
2022/03/03 12:47:18;;;;;;;14.27;11.45;;;;;;;;;;4979857;28;20208;-71
2022/03/03 12:49:48;;;;;;;18.83;11.30;;;;;;;;;;4976772;28;20200;-70
2022/03/03 12:52:13;;;;;;;14.60;10.95;;;;;;;;;;4963197;28;20197;-71
2022/03/03 12:54:39;;;;;;;10.80;9.80;;;;;;;;;;4956355;28;20283;-71
2022/03/03 12:57:05;;;;;;;15.63;11.15;;;;;;;;;;4978444;28;21159;-71
2022/03/03 12:59:32;;;;;;;12.38;10.10;;;;;;;;;;4954802;28;20275;-72
2022/03/03 13:01:58;;;;;;;17.50;10.73;;;;;;;;;;4986136;28;20189;-70
2022/03/03 13:04:24;;;;;;;15.77;10.93;;;;;;;;;;4965053;28;20684;-70
2022/03/03 13:06:50;;;;;;;12.13;10.15;;;;;;;;;;4983584;28;20263;-70
2022/03/03 13:09:16;;;;;;;12.90;10.25;;;;;;;;;;4965334;28;20285;-69
2022/03/03 13:11:42;;;;;;;12.90;9.57;;;;;;;;;;4968060;28;20672;-69
2022/03/03 13:14:08;;;;;;;12.23;9.77;;;;;;;;;;4952785;28;20644;-69
2022/03/03 13:16:40;;;;;;;13.00;10.00;;;;;;;;;;4976074;28;20650;-70
2022/03/03 13:19:06;;;;;;;12.00;8.75;;;;;;;;;;4948946;28;20293;-69
2022/03/03 13:21:33;;;;;;;16.17;8.82;;;;;;;;;;4967223;28;20205;-70
2022/03/03 13:23:59;;;;;;;11.27;8.93;;;;;;;;;;4968102;28;20670;-71
2022/03/03 13:26:27;;;;;;;10.10;8.35;;;;;;;;;;4982301;28;20996;-70
2022/03/03 13:28:55;;;;;;;12.38;9.07;;;;;;;;;;4970791;28;20343;-71
2022/03/03 13:31:22;;;;;;;11.35;10.10;;;;;;;;;;4977382;28;20939;-70
2022/03/03 13:33:49;;;;;;;11.80;10.57;;;;;;;;;;4956883;28;20195;-70
2022/03/03 13:36:16;;;;;;;11.65;10.60;;;;;;;;;;4965714;28;20186;-70
2022/03/03 13:38:42;;;;;;;11.77;10.77;;;;;;;;;;4961081;28;20190;-70
2022/03/03 13:41:21;;;;;;;12.00;10.40;;;;;;;;;;4971620;28;20196;-71
2022/03/03 13:43:47;;;;;;;13.52;10.60;;;;;;;;;;4978673;28;20185;-70
2022/03/03 13:46:27;;;;;;;12.13;10.20;;;;;;;;;;4976654;28;20371;-70
2022/03/03 13:48:53;;;;;;;11.37;10.27;;;;;;;;;;4963823;28;20287;-70
2022/03/03 13:51:19;;;;;;;11.27;9.90;;;;;;;;;;4960179;28;20665;-70
2022/03/03 13:53:58;;;;;;;10.93;9.80;;;;;;;;;;4958970;28;20220;-70
2022/03/03 13:56:24;;;;;;;;;;;;;;;;;;4947201;28;20541;-69
2022/03/03 13:58:51;;;;;;;10.83;9.73;;;;;;;;;;4958144;28;20273;-70
2022/03/03 14:01:25;;;;;;;11.13;8.50;;;;;;;;;;4945977;28;20604;-69
2022/03/03 14:03:51;;;;;;;9.67;8.63;;;;;;;;;;4946888;28;20244;-69
2022/03/03 14:06:18;;;;;;;10.10;9.03;;;;;;;;;;4953254;28;20220;-70
2022/03/03 14:08:45;;;;;;;10.47;8.33;;;;;;;;;;4957290;28;20391;-69
2022/03/03 14:11:11;;;;;;;30.37;10.03;;;;;;;;;;4953481;28;20303;-71
2022/03/03 14:13:47;;;;;;;12.27;8.80;;;;;;;;;;4950280;28;20193;-70
2022/03/03 14:16:13;;;;;;;15.90;8.90;;;;;;;;;;4970367;28;20298;-71
2022/03/03 14:18:39;;;;;;;9.70;8.07;;;;;;;;;;4955899;28;20189;-71
2022/03/03 14:21:06;;;;;;;11.77;8.00;;;;;;;;;;4975576;28;20675;-71
2022/03/03 14:23:32;;;;;;;10.03;7.33;;;;;;;;;;4972050;28;20190;-70